Time;durP1;ratioP1;P1;durP2;ratioP2;P2;SDS_P1;SDS_P2;PMS_P1;PMS_P2;Temp;Humidity;BMP_temperature;BMP_pressure;BME280_temperature;BME280_humidity;BME280_pressure;Samples;Min_cycle;Max_cycle;Signal;HPM_P1;HPM_P2
2022/11/08 00:01:31;;;;;;;;;;;;;;;;;;6204827;23;19958;-92
2022/11/08 00:03:58;;;;;;;;;;;;;;;;;;6208024;23;19916;-92
2022/11/08 00:14:39;;;;;;;;;;;;;;;;;;6236712;22;19919;-92
2022/11/08 00:17:05;;;;;;;;;;;;;;;;;;6208562;22;19949;-92
2022/11/08 00:19:32;;;;;;;;;;;;;;;;;;6207979;22;20383;-92
2022/11/08 00:21:58;;;;;;;;;;;;;;;;;;6212983;22;19962;-92
2022/11/08 00:24:24;;;;;;;;;;;;;;;;;;6208338;22;19942;-92
2022/11/08 00:26:51;;;;;;;;;;;;;;;;;;6234679;22;19919;-91
2022/11/08 00:29:17;;;;;;;;;;;;;;;;;;6206588;22;19942;-91
2022/11/08 00:31:43;;;;;;;;;;;;;;;;;;6208615;22;19919;-92
2022/11/08 00:34:09;;;;;;;;;;;;;;;;;;6209823;22;19952;-92
2022/11/08 00:36:35;;;;;;;;;;;;;;;;;;6207169;22;20421;-92
2022/11/08 00:39:01;;;;;;;;;;;;;;;;;;6209288;22;20022;-92
2022/11/08 00:41:27;;;;;;;;;;;;;;;;;;6207032;22;19919;-91
2022/11/08 00:43:53;;;;;;;;;;;;;;;;;;6210620;22;19919;-92
2022/11/08 00:46:20;;;;;;;;;;;;;;;;;;6205775;22;19915;-91
2022/11/08 00:48:46;;;;;;;;;;;;;;;;;;6210674;22;19961;-92
2022/11/08 00:51:13;;;;;;;;;;;;;;;;;;6206229;22;19984;-92
2022/11/08 00:53:38;;;;;;;;;;;;;;;;;;6238051;22;20336;-91
2022/11/08 00:56:04;;;;;;;;;;;;;;;;;;6235821;22;20006;-92
2022/11/08 00:58:30;;;;;;;;;;;;;;;;;;6207468;22;19968;-91
2022/11/08 01:00:56;;;;;;;;;;;;;;;;;;6208720;22;19922;-92
2022/11/08 01:03:22;;;;;;;;;;;;;;;;;;6205873;22;19919;-91
2022/11/08 01:05:48;;;;;;;;;;;;;;;;;;6211906;22;19976;-93
2022/11/08 01:08:14;;;;;;;;;;;;;;;;;;6201235;23;20098;-91
2022/11/08 01:10:41;;;;;;;;;;;;;;;;;;6179267;23;19920;-92
2022/11/08 01:13:07;;;;;;;;;;;;;;;;;;6178728;23;19987;-92
2022/11/08 01:15:33;;;;;;;;;;;;;;;;;;6174822;23;19962;-92
2022/11/08 01:17:59;;;;;;;;;;;;;;;;;;6204212;23;19919;-92
2022/11/08 01:20:24;;;;;;;;;;;;;;;;;;6178685;23;20269;-92
2022/11/08 01:22:50;;;;;;;;;;;;;;;;;;6206134;23;20403;-92
2022/11/08 01:25:16;;;;;;;;;;;;;;;;;;6177598;23;20420;-91
2022/11/08 01:27:42;;;;;;;;;;;;;;;;;;6180394;23;20241;-92
2022/11/08 01:30:08;;;;;;;;;;;;;;;;;;6204795;23;20253;-91
2022/11/08 01:32:34;;;;;;;;;;;;;;;;;;6180405;23;19919;-92
2022/11/08 01:35:00;;;;;;;;;;;;;;;;;;6207577;23;19958;-91
2022/11/08 01:37:26;;;;;;;;;;;;;;;;;;6206064;23;20474;-92
2022/11/08 01:39:52;;;;;;;;;;;;;;;;;;6180440;23;20175;-92
2022/11/08 01:42:18;;;;;;;;;;;;;;;;;;6179058;23;19920;-92
2022/11/08 01:44:44;;;;;;;;;;;;;;;;;;6178709;23;20079;-91
2022/11/08 01:47:13;;;;;;;;;;;;;;;;;;6179871;23;19958;-92
2022/11/08 01:49:39;;;;;;;;;;;;;;;;;;6179842;23;20333;-91
2022/11/08 01:52:05;;;;;;;;;;;;;;;;;;6180589;23;19930;-92
2022/11/08 01:54:31;;;;;;;;;;;;;;;;;;6203450;23;20886;-91
2022/11/08 01:56:57;;;;;;;;;;;;;;;;;;6184027;23;19923;-90
2022/11/08 01:59:23;;;;;;;;;;;;;;;;;;6179263;23;19966;-91
2022/11/08 02:01:49;;;;;;;;;;;;;;;;;;6180384;23;20018;-91
2022/11/08 02:04:15;;;;;;;;;;;;;;;;;;6178704;23;19927;-91
2022/11/08 02:06:41;;;;;;;;;;;;;;;;;;6181469;23;19990;-90
2022/11/08 02:09:07;;;;;;;;;;;;;;;;;;6182026;23;20241;-90
2022/11/08 02:11:33;;;;;;;;;;;;;;;;;;6178578;23;19919;-92
2022/11/08 02:13:59;;;;;;;;;;;;;;;;;;6206126;23;19919;-91
2022/11/08 02:16:25;;;;;;;;;;;;;;;;;;6177654;23;19927;-91
2022/11/08 02:18:50;;;;;;;;;;;;;;;;;;6204024;23;19950;-90
2022/11/08 02:21:16;;;;;;;;;;;;;;;;;;6177521;23;19920;-91
2022/11/08 02:23:42;;;;;;;;;;;;;;;;;;6207378;23;19991;-91
2022/11/08 02:26:08;;;;;;;;;;;;;;;;;;6180811;23;19970;-91
2022/11/08 02:28:34;;;;;;;;;;;;;;;;;;6177049;23;20284;-91
2022/11/08 02:31:00;;;;;;;;;;;;;;;;;;6201275;23;20372;-92
2022/11/08 02:33:26;;;;;;;;;;;;;;;;;;6201080;23;19920;-91
2022/11/08 02:35:52;;;;;;;;;;;;;;;;;;6180078;23;19927;-91
2022/11/08 02:38:18;;;;;;;;;;;;;;;;;;6177685;23;19927;-92
2022/11/08 02:40:44;;;;;;;;;;;;;;;;;;6179478;23;19966;-93
2022/11/08 02:43:13;;;;;;;;;;;;;;;;;;6205793;23;19919;-91
2022/11/08 02:45:39;;;;;;;;;;;;;;;;;;6204360;23;20296;-91
2022/11/08 02:48:05;;;;;;;;;;;;;;;;;;6205413;23;20006;-92
2022/11/08 02:50:31;;;;;;;;;;;;;;;;;;6199687;23;20446;-91
2022/11/08 02:52:57;;;;;;;;;;;;;;;;;;6204658;23;19928;-91
2022/11/08 02:55:23;;;;;;;;;;;;;;;;;;6177612;23;20203;-91
2022/11/08 02:57:49;;;;;;;;;;;;;;;;;;6206495;23;19920;-91
2022/11/08 03:00:15;;;;;;;;;;;;;;;;;;6175665;23;19923;-91
2022/11/08 03:02:41;;;;;;;;;;;;;;;;;;6180782;23;20428;-91
2022/11/08 03:05:07;;;;;;;;;;;;;;;;;;6207940;23;19919;-91
2022/11/08 03:07:33;;;;;;;;;;;;;;;;;;6178203;22;19920;-90
2022/11/08 03:09:59;;;;;;;;;;;;;;;;;;6237225;22;19922;-91
2022/11/08 03:12:25;;;;;;;;;;;;;;;;;;6235231;22;19950;-92
2022/11/08 03:14:50;;;;;;;;;;;;;;;;;;6233724;22;19915;-91
2022/11/08 03:17:16;;;;;;;;;;;;;;;;;;6231213;22;19923;-91
2022/11/08 03:19:42;;;;;;;;;;;;;;;;;;6234176;22;19926;-91
2022/11/08 03:22:08;;;;;;;;;;;;;;;;;;6234715;22;19919;-91
2022/11/08 03:24:34;;;;;;;;;;;;;;;;;;6232752;22;20427;-90
2022/11/08 03:27:00;;;;;;;;;;;;;;;;;;6236192;22;20359;-91
2022/11/08 03:29:26;;;;;;;;;;;;;;;;;;6231739;22;20319;-90
2022/11/08 03:31:52;;;;;;;;;;;;;;;;;;6236231;22;19993;-91
2022/11/08 03:34:18;;;;;;;;;;;;;;;;;;6233613;22;19919;-91
2022/11/08 03:36:44;;;;;;;;;;;;;;;;;;6236965;22;20034;-91
2022/11/08 03:39:10;;;;;;;;;;;;;;;;;;6236459;22;19919;-91
2022/11/08 03:41:37;;;;;;;;;;;;;;;;;;6234643;22;19919;-91
2022/11/08 03:44:03;;;;;;;;;;;;;;;;;;6235437;22;20038;-92
2022/11/08 03:46:29;;;;;;;;;;;;;;;;;;6232981;22;19919;-91
2022/11/08 03:48:55;;;;;;;;;;;;;;;;;;6238176;22;20403;-91
2022/11/08 03:51:21;;;;;;;;;;;;;;;;;;6235201;22;19964;-92
2022/11/08 03:53:47;;;;;;;;;;;;;;;;;;6237751;22;19919;-90
2022/11/08 03:56:13;;;;;;;;;;;;;;;;;;6237257;22;20303;-92
2022/11/08 03:58:39;;;;;;;;;;;;;;;;;;6237717;22;19947;-91
2022/11/08 04:01:05;;;;;;;;;;;;;;;;;;6235912;22;19924;-91
2022/11/08 04:03:31;;;;;;;;;;;;;;;;;;6233368;22;19919;-91
2022/11/08 04:05:56;;;;;;;;;;;;;;;;;;6236029;22;20048;-91
2022/11/08 04:08:22;;;;;;;;;;;;;;;;;;6235069;22;19924;-91
2022/11/08 04:10:48;;;;;;;;;;;;;;;;;;6237461;22;20010;-92
2022/11/08 04:15:59;;;;;;;;;;;;;;;;;;6237769;22;19923;-91
2022/11/08 04:21:20;;;;;;;;;;;;;;;;;;6235973;22;19922;-91
2022/11/08 04:23:46;;;;;;;;;;;;;;;;;;6235632;22;19985;-91
2022/11/08 04:26:12;;;;;;;;;;;;;;;;;;6231577;22;20681;-91
2022/11/08 04:28:38;;;;;;;;;;;;;;;;;;6236213;22;19947;-91
2022/11/08 04:31:04;;;;;;;;;;;;;;;;;;6237134;22;20000;-92
2022/11/08 04:33:30;;;;;;;;;;;;;;;;;;6233360;22;19989;-91
2022/11/08 04:35:56;;;;;;;;;;;;;;;;;;6236350;22;19923;-91
2022/11/08 04:38:22;;;;;;;;;;;;;;;;;;6232424;22;19915;-91
2022/11/08 04:40:48;;;;;;;;;;;;;;;;;;6231395;22;20354;-92
2022/11/08 04:43:14;;;;;;;;;;;;;;;;;;6228637;22;20430;-91
2022/11/08 04:45:40;;;;;;;;;;;;;;;;;;6234273;22;19919;-91
2022/11/08 04:48:06;;;;;;;;;;;;;;;;;;6233672;22;19931;-91
2022/11/08 04:50:32;;;;;;;;;;;;;;;;;;6233477;22;20348;-91
2022/11/08 04:52:58;;;;;;;;;;;;;;;;;;6237988;22;20248;-91
2022/11/08 04:55:23;;;;;;;;;;;;;;;;;;6238067;22;19951;-91
2022/11/08 04:57:49;;;;;;;;;;;;;;;;;;6237472;22;19919;-91
2022/11/08 05:00:15;;;;;;;;;;;;;;;;;;6229659;22;20328;-91
2022/11/08 05:02:41;;;;;;;;;;;;;;;;;;6234348;22;20248;-91
2022/11/08 05:05:07;;;;;;;;;;;;;;;;;;6234497;22;19919;-92
2022/11/08 05:07:33;;;;;;;;;;;;;;;;;;6233905;22;19919;-91
2022/11/08 05:09:59;;;;;;;;;;;;;;;;;;6238196;22;19927;-90
2022/11/08 05:12:25;;;;;;;;;;;;;;;;;;6211153;22;20268;-92
2022/11/08 05:14:51;;;;;;;;;;;;;;;;;;6211278;22;19953;-92
2022/11/08 05:17:17;;;;;;;;;;;;;;;;;;6209277;22;19955;-92
2022/11/08 05:25:13;;;;;;;;;;;;;;;;;;6232065;22;20350;-91
2022/11/08 05:27:38;;;;;;;;;;;;;;;;;;6208103;22;20352;-91
2022/11/08 05:30:04;;;;;;;;;;;;;;;;;;6210821;22;19919;-91
2022/11/08 05:32:30;;;;;;;;;;;;;;;;;;6206862;22;19991;-91
2022/11/08 05:34:56;;;;;;;;;;;;;;;;;;6210285;22;19923;-91
2022/11/08 05:37:22;;;;;;;;;;;;;;;;;;6210327;22;19923;-92
2022/11/08 05:39:48;;;;;;;;;;;;;;;;;;6211988;22;19919;-92
2022/11/08 05:42:14;;;;;;;;;;;;;;;;;;6205968;22;19961;-91
2022/11/08 05:44:40;;;;;;;;;;;;;;;;;;6237172;22;20344;-90
2022/11/08 05:47:06;;;;;;;;;;;;;;;;;;6212077;22;19923;-91
2022/11/08 05:49:32;;;;;;;;;;;;;;;;;;6204103;22;19945;-92
2022/11/08 05:51:58;;;;;;;;;;;;;;;;;;6234780;22;19919;-92
2022/11/08 05:54:24;;;;;;;;;;;;;;;;;;6207839;22;19994;-92
2022/11/08 05:56:50;;;;;;;;;;;;;;;;;;6236923;22;19963;-94
2022/11/08 05:59:16;;;;;;;;;;;;;;;;;;6207922;22;19915;-93
2022/11/08 06:01:42;;;;;;;;;;;;;;;;;;6208528;22;19919;-93
2022/11/08 06:04:08;;;;;;;;;;;;;;;;;;6236411;22;19969;-91
2022/11/08 06:06:34;;;;;;;;;;;;;;;;;;6230692;22;19998;-92
2022/11/08 06:09:00;;;;;;;;;;;;;;;;;;6237335;22;20233;-91
2022/11/08 06:11:26;;;;;;;;;;;;;;;;;;6260975;22;19998;-91
2022/11/08 06:13:52;;;;;;;;;;;;;;;;;;6212844;22;19919;-91
2022/11/08 06:16:17;;;;;;;;;;;;;;;;;;6233999;22;19965;-91
2022/11/08 06:18:43;;;;;;;;;;;;;;;;;;6211364;22;20294;-91
2022/11/08 06:21:09;;;;;;;;;;;;;;;;;;6214773;22;19986;-91
2022/11/08 06:23:35;;;;;;;;;;;;;;;;;;6213851;22;19938;-89
2022/11/08 06:26:01;;;;;;;;;;;;;;;;;;6213885;22;19964;-91
2022/11/08 06:28:27;;;;;;;;;;;;;;;;;;6235418;22;20340;-91
2022/11/08 06:30:53;;;;;;;;;;;;;;;;;;6211380;22;20287;-91
2022/11/08 06:33:19;;;;;;;;;;;;;;;;;;6208943;22;20329;-91
2022/11/08 06:35:45;;;;;;;;;;;;;;;;;;6239526;22;20248;-91
2022/11/08 06:38:14;;;;;;;;;;;;;;;;;;6208511;22;20358;-90
2022/11/08 06:40:40;;;;;;;;;;;;;;;;;;6232775;22;19923;-90
2022/11/08 06:43:06;;;;;;;;;;;;;;;;;;6212600;22;19926;-91
2022/11/08 06:45:32;;;;;;;;;;;;;;;;;;6210831;22;20574;-90
2022/11/08 06:47:58;;;;;;;;;;;;;;;;;;6213728;22;20322;-90
2022/11/08 06:50:24;;;;;;;;;;;;;;;;;;6231658;22;19942;-91
2022/11/08 06:52:50;;;;;;;;;;;;;;;;;;6205194;22;19919;-94
2022/11/08 06:55:16;;;;;;;;;;;;;;;;;;6225553;22;19919;-91
2022/11/08 06:57:42;;;;;;;;;;;;;;;;;;6237620;22;20257;-93
2022/11/08 07:00:14;;;;;;;;;;;;;;;;;;6198567;22;19965;-91
2022/11/08 07:02:40;;;;;;;;;;;;;;;;;;6214424;22;19919;-91
2022/11/08 07:05:06;;;;;;;;;;;;;;;;;;6221664;22;19927;-91
2022/11/08 07:07:31;;;;;;;;;;;;;;;;;;6230262;22;20313;-91
2022/11/08 07:09:57;;;;;;;;;;;;;;;;;;6235051;22;19959;-92
2022/11/08 07:12:23;;;;;;;;;;;;;;;;;;6234963;22;20277;-91
2022/11/08 07:14:49;;;;;;;;;;;;;;;;;;6212465;22;19919;-91
2022/11/08 07:17:15;;;;;;;;;;;;;;;;;;6234321;22;20284;-90
2022/11/08 07:19:41;;;;;;;;;;;;;;;;;;6238161;22;20477;-90
2022/11/08 07:22:07;;;;;;;;;;;;;;;;;;6214372;22;19922;-91
2022/11/08 07:24:33;;;;;;;;;;;;;;;;;;6206331;22;20312;-90
2022/11/08 07:26:59;;;;;;;;;;;;;;;;;;6212969;22;19951;-91
2022/11/08 07:29:25;;;;;;;;;;;;;;;;;;6211343;22;19924;-92
2022/11/08 07:31:51;;;;;;;;;;;;;;;;;;6212377;22;19926;-91
2022/11/08 07:34:17;;;;;;;;;;;;;;;;;;6207742;22;19922;-91
2022/11/08 07:36:43;;;;;;;;;;;;;;;;;;6237921;22;19924;-91
2022/11/08 07:39:09;;;;;;;;;;;;;;;;;;6213185;22;20294;-92
2022/11/08 07:41:35;;;;;;;;;;;;;;;;;;6234608;22;19923;-91
2022/11/08 07:44:01;;;;;;;;;;;;;;;;;;6213798;22;19941;-93
2022/11/08 07:46:27;;;;;;;;;;;;;;;;;;6214823;22;19927;-93
2022/11/08 07:48:53;;;;;;;;;;;;;;;;;;6213831;22;19919;-93
2022/11/08 07:51:19;;;;;;;;;;;;;;;;;;6211692;22;19958;-93
2022/11/08 07:53:45;;;;;;;;;;;;;;;;;;6214188;22;19997;-92
2022/11/08 07:56:14;;;;;;;;;;;;;;;;;;6211506;22;19930;-93
2022/11/08 07:58:40;;;;;;;;;;;;;;;;;;6215733;22;19919;-93
2022/11/08 08:01:06;;;;;;;;;;;;;;;;;;6214111;22;20332;-93
2022/11/08 08:03:32;;;;;;;;;;;;;;;;;;6212027;22;20101;-93
2022/11/08 08:05:58;;;;;;;;;;;;;;;;;;6239122;22;19986;-93
2022/11/08 08:08:24;;;;;;;;;;;;;;;;;;6209915;22;19931;-93
2022/11/08 08:10:50;;;;;;;;;;;;;;;;;;6213415;22;19919;-92
2022/11/08 08:13:16;;;;;;;;;;;;;;;;;;6213313;22;20385;-94
2022/11/08 08:15:42;;;;;;;;;;;;;;;;;;6242219;22;20214;-92
2022/11/08 08:18:08;;;;;;;;;;;;;;;;;;6242583;22;19916;-93
2022/11/08 08:20:34;;;;;;;;;;;;;;;;;;6213693;22;19919;-93
2022/11/08 08:23:00;;;;;;;;;;;;;;;;;;6216206;22;19942;-93
2022/11/08 08:25:26;;;;;;;;;;;;;;;;;;6212063;22;19919;-93
2022/11/08 08:27:52;;;;;;;;;;;;;;;;;;6214159;22;19976;-94
2022/11/08 08:30:18;;;;;;;;;;;;;;;;;;6212574;22;19968;-92
2022/11/08 08:32:44;;;;;;;;;;;;;;;;;;6214912;22;19993;-94
2022/11/08 08:35:10;;;;;;;;;;;;;;;;;;6212074;22;19919;-93
2022/11/08 08:37:36;;;;;;;;;;;;;;;;;;6210756;22;19919;-93
2022/11/08 08:40:02;;;;;;;;;;;;;;;;;;6238000;22;19989;-93
2022/11/08 08:42:28;;;;;;;;;;;;;;;;;;6211664;22;19915;-93
2022/11/08 08:44:54;;;;;;;;;;;;;;;;;;6215085;22;19919;-93
2022/11/08 08:47:20;;;;;;;;;;;;;;;;;;6212535;22;19931;-93
2022/11/08 08:49:46;;;;;;;;;;;;;;;;;;6214652;22;20336;-93
2022/11/08 08:52:12;;;;;;;;;;;;;;;;;;6211408;22;19960;-93
2022/11/08 08:54:38;;;;;;;;;;;;;;;;;;6212867;22;19929;-94
2022/11/08 08:57:04;;;;;;;;;;;;;;;;;;6214512;22;20191;-93
2022/11/08 08:59:29;;;;;;;;;;;;;;;;;;6212056;22;19965;-93
2022/11/08 09:01:55;;;;;;;;;;;;;;;;;;6213506;22;19922;-92
2022/11/08 09:04:21;;;;;;;;;;;;;;;;;;6235253;22;19930;-92
2022/11/08 09:06:47;;;;;;;;;;;;;;;;;;6240448;22;19919;-94
2022/11/08 09:09:13;;;;;;;;;;;;;;;;;;6213046;22;20653;-93
2022/11/08 09:11:39;;;;;;;;;;;;;;;;;;6240480;22;19915;-94
2022/11/08 09:14:05;;;;;;;;;;;;;;;;;;6236784;22;19929;-93
2022/11/08 09:16:31;;;;;;;;;;;;;;;;;;6237771;22;19923;-93
2022/11/08 09:18:57;;;;;;;;;;;;;;;;;;6265921;22;20332;-93
2022/11/08 09:21:23;;;;;;;;;;;;;;;;;;6263452;22;19919;-93
2022/11/08 09:23:49;;;;;;;;;;;;;;;;;;6235917;22;20447;-93
2022/11/08 09:26:15;;;;;;;;;;;;;;;;;;6261280;22;19923;-93
2022/11/08 09:28:41;;;;;;;;;;;;;;;;;;6237666;22;19919;-94
2022/11/08 09:31:08;;;;;;;;;;;;;;;;;;6236956;22;19919;-93
2022/11/08 09:33:34;;;;;;;;;;;;;;;;;;6237736;22;19926;-94
2022/11/08 09:36:00;;;;;;;;;;;;;;;;;;6237968;22;19931;-94
2022/11/08 09:38:26;;;;;;;;;;;;;;;;;;6237171;22;19926;-94
2022/11/08 09:40:52;;;;;;;;;;;;;;;;;;6241454;22;19915;-93
2022/11/08 09:43:18;;;;;;;;;;;;;;;;;;6236685;22;19919;-94
2022/11/08 09:45:45;;;;;;;;;;;;;;;;;;6241047;22;20401;-94
2022/11/08 09:48:14;;;;;;;;;;;;;;;;;;6240291;22;19919;-94
2022/11/08 09:50:40;;;;;;;;;;;;;;;;;;6241417;22;19915;-93
2022/11/08 09:53:06;;;;;;;;;;;;;;;;;;6241764;22;19966;-93
2022/11/08 09:55:32;;;;;;;;;;;;;;;;;;6242332;22;19919;-94
2022/11/08 09:57:58;;;;;;;;;;;;;;;;;;6268146;22;20125;-94
2022/11/08 10:00:24;;;;;;;;;;;;;;;;;;6241607;22;19981;-94
2022/11/08 10:02:50;;;;;;;;;;;;;;;;;;6240451;22;20308;-94
2022/11/08 10:05:16;;;;;;;;;;;;;;;;;;6240563;22;19949;-93
2022/11/08 10:07:42;;;;;;;;;;;;;;;;;;6267041;22;20389;-95
2022/11/08 10:10:09;;;;;;;;;;;;;;;;;;6243154;22;19923;-95
2022/11/08 10:12:35;;;;;;;;;;;;;;;;;;6235787;22;19929;-92
2022/11/08 10:15:01;;;;;;;;;;;;;;;;;;6266179;22;19923;-93
2022/11/08 10:17:28;;;;;;;;;;;;;;;;;;6236029;22;19923;-94
2022/11/08 10:19:54;;;;;;;;;;;;;;;;;;6240774;22;19950;-93
2022/11/08 10:22:20;;;;;;;;;;;;;;;;;;6239420;22;19926;-94
2022/11/08 10:24:46;;;;;;;;;;;;;;;;;;6241673;22;19994;-94
2022/11/08 10:27:12;;;;;;;;;;;;;;;;;;6238940;22;19923;-94
2022/11/08 10:29:38;;;;;;;;;;;;;;;;;;6265097;22;19923;-95
2022/11/08 10:32:03;;;;;;;;;;;;;;;;;;6267025;22;19997;-94
2022/11/08 10:34:30;;;;;;;;;;;;;;;;;;6238210;22;19932;-94
2022/11/08 10:36:56;;;;;;;;;;;;;;;;;;6239876;22;20329;-95
2022/11/08 10:39:21;;;;;;;;;;;;;;;;;;6239865;22;19919;-94
2022/11/08 10:41:47;;;;;;;;;;;;;;;;;;6241499;22;20371;-93
2022/11/08 10:44:14;;;;;;;;;;;;;;;;;;6237555;22;19915;-93
2022/11/08 10:46:40;;;;;;;;;;;;;;;;;;6241615;22;20324;-94
2022/11/08 10:49:06;;;;;;;;;;;;;;;;;;6242190;22;19954;-94
2022/11/08 10:51:32;;;;;;;;;;;;;;;;;;6238972;22;19919;-94
2022/11/08 10:53:59;;;;;;;;;;;;;;;;;;6239474;22;19919;-94
2022/11/08 10:56:25;;;;;;;;;;;;;;;;;;6239971;22;20008;-94
2022/11/08 10:58:51;;;;;;;;;;;;;;;;;;6242814;22;19923;-93
2022/11/08 11:01:17;;;;;;;;;;;;;;;;;;6239644;22;19922;-94
2022/11/08 11:03:43;;;;;;;;;;;;;;;;;;6239909;22;19959;-94
2022/11/08 11:06:09;;;;;;;;;;;;;;;;;;6265996;22;19990;-94
2022/11/08 11:08:35;;;;;;;;;;;;;;;;;;6239848;22;19958;-94
2022/11/08 11:11:01;;;;;;;;;;;;;;;;;;6240150;22;19919;-93
2022/11/08 11:13:27;;;;;;;;;;;;;;;;;;6224892;22;19899;-93
2022/11/08 11:15:53;;;;;;;;;;;;;;;;;;6227477;22;19959;-94
2022/11/08 11:18:19;;;;;;;;;;;;;;;;;;6219540;22;19927;-95
2022/11/08 11:20:45;;;;;;;;;;;;;;;;;;6249192;22;19998;-95
2022/11/08 11:23:14;;;;;;;;;;;;;;;;;;6222858;22;20226;-94
2022/11/08 11:25:40;;;;;;;;;;;;;;;;;;6224281;22;20348;-94
2022/11/08 11:28:06;;;;;;;;;;;;;;;;;;6224621;22;19930;-95
2022/11/08 11:30:32;;;;;;;;;;;;;;;;;;6221659;22;20449;-94
2022/11/08 11:32:58;;;;;;;;;;;;;;;;;;6217994;22;19915;-93
2022/11/08 11:35:24;;;;;;;;;;;;;;;;;;6236958;22;19919;-95
2022/11/08 11:37:50;;;;;;;;;;;;;;;;;;6214914;22;20006;-94
2022/11/08 11:40:16;;;;;;;;;;;;;;;;;;6214084;22;20229;-94
2022/11/08 11:42:42;;;;;;;;;;;;;;;;;;6241365;22;20309;-95
2022/11/08 11:45:08;;;;;;;;;;;;;;;;;;6215297;22;20307;-93
2022/11/08 11:47:34;;;;;;;;;;;;;;;;;;6213232;22;19915;-94
2022/11/08 11:50:00;;;;;;;;;;;;;;;;;;6241796;22;20430;-93
2022/11/08 11:52:26;;;;;;;;;;;;;;;;;;6238432;22;19919;-94
2022/11/08 11:54:52;;;;;;;;;;;;;;;;;;6241336;22;19919;-93
2022/11/08 11:57:18;;;;;;;;;;;;;;;;;;6213761;22;19946;-94
2022/11/08 11:59:45;;;;;;;;;;;;;;;;;;6216965;22;19926;-94
2022/11/08 12:02:14;;;;;;;;;;;;;;;;;;6215298;22;19916;-94
2022/11/08 12:04:40;;;;;;;;;;;;;;;;;;6214472;22;20344;-94
2022/11/08 12:07:06;;;;;;;;;;;;;;;;;;6215410;22;19969;-95
2022/11/08 12:09:32;;;;;;;;;;;;;;;;;;6211795;22;20230;-93
2022/11/08 12:11:58;;;;;;;;;;;;;;;;;;6214738;22;19919;-94
2022/11/08 12:14:24;;;;;;;;;;;;;;;;;;6238234;22;19926;-93
2022/11/08 12:16:50;;;;;;;;;;;;;;;;;;6216008;22;19919;-95
2022/11/08 12:19:16;;;;;;;;;;;;;;;;;;6213256;22;19919;-94
2022/11/08 12:21:42;;;;;;;;;;;;;;;;;;6215167;22;19923;-95
2022/11/08 12:24:08;;;;;;;;;;;;;;;;;;6215183;22;19938;-93
2022/11/08 12:26:34;;;;;;;;;;;;;;;;;;6239106;22;19961;-93
2022/11/08 12:29:00;;;;;;;;;;;;;;;;;;6237401;22;20325;-93
2022/11/08 12:31:26;;;;;;;;;;;;;;;;;;6207878;22;19923;-94
2022/11/08 12:33:52;;;;;;;;;;;;;;;;;;6237300;22;20240;-93
2022/11/08 12:36:18;;;;;;;;;;;;;;;;;;6233339;22;19919;-93
2022/11/08 12:38:44;;;;;;;;;;;;;;;;;;6237052;22;19915;-95
2022/11/08 12:41:10;;;;;;;;;;;;;;;;;;6234845;22;20362;-92
2022/11/08 12:43:39;;;;;;;;;;;;;;;;;;6211679;22;19923;-93
2022/11/08 12:46:05;;;;;;;;;;;;;;;;;;6209099;22;20395;-94
2022/11/08 12:48:31;;;;;;;;;;;;;;;;;;6202331;22;20615;-93
2022/11/08 12:50:57;;;;;;;;;;;;;;;;;;6212672;22;19923;-93
2022/11/08 12:53:23;;;;;;;;;;;;;;;;;;6234824;22;20415;-92
2022/11/08 12:55:49;;;;;;;;;;;;;;;;;;6212639;22;19919;-94
2022/11/08 12:58:15;;;;;;;;;;;;;;;;;;6209513;22;20010;-92
2022/11/08 13:00:42;;;;;;;;;;;;;;;;;;6208501;22;19919;-93
2022/11/08 13:03:08;;;;;;;;;;;;;;;;;;6209260;22;19923;-92
2022/11/08 13:05:34;;;;;;;;;;;;;;;;;;6208238;22;20247;-92
2022/11/08 13:08:00;;;;;;;;;;;;;;;;;;6210124;22;20262;-92
2022/11/08 13:10:26;;;;;;;;;;;;;;;;;;6207496;22;19923;-92
2022/11/08 13:12:52;;;;;;;;;;;;;;;;;;6203169;23;19931;-92
2022/11/08 13:15:20;;;;;;;;;;;;;;;;;;6203203;23;19916;-93
2022/11/08 13:17:46;;;;;;;;;;;;;;;;;;6207557;23;19947;-93
2022/11/08 13:20:12;;;;;;;;;;;;;;;;;;6181025;23;19920;-94
2022/11/08 13:22:39;;;;;;;;;;;;;;;;;;6208323;23;19968;-94
2022/11/08 13:25:05;;;;;;;;;;;;;;;;;;6182823;23;20007;-93
2022/11/08 13:27:31;;;;;;;;;;;;;;;;;;6180019;23;20326;-92
2022/11/08 13:30:00;;;;;;;;;;;;;;;;;;6181136;23;19919;-93
2022/11/08 13:32:26;;;;;;;;;;;;;;;;;;6176976;23;20229;-92
2022/11/08 13:34:52;;;;;;;;;;;;;;;;;;6182523;23;19926;-93
2022/11/08 13:37:18;;;;;;;;;;;;;;;;;;6182339;23;19924;-94
2022/11/08 13:39:44;;;;;;;;;;;;;;;;;;6181885;23;19919;-93
2022/11/08 13:42:10;;;;;;;;;;;;;;;;;;6182733;23;20260;-93
2022/11/08 13:44:36;;;;;;;;;;;;;;;;;;6177057;23;19950;-92
2022/11/08 13:47:01;;;;;;;;;;;;;;;;;;6209536;23;20337;-92
2022/11/08 13:49:27;;;;;;;;;;;;;;;;;;6178767;23;19916;-92
2022/11/08 13:51:56;;;;;;;;;;;;;;;;;;6207297;23;19919;-93
2022/11/08 13:54:22;;;;;;;;;;;;;;;;;;6178934;23;20327;-93
2022/11/08 13:56:48;;;;;;;;;;;;;;;;;;6182012;23;19920;-93
2022/11/08 13:59:14;;;;;;;;;;;;;;;;;;6205022;23;19919;-93
2022/11/08 14:01:40;;;;;;;;;;;;;;;;;;6182463;23;20396;-93
2022/11/08 14:04:06;;;;;;;;;;;;;;;;;;6180851;23;20319;-93
2022/11/08 14:06:32;;;;;;;;;;;;;;;;;;6181274;23;20398;-93
2022/11/08 14:08:58;;;;;;;;;;;;;;;;;;6182509;23;19916;-93
2022/11/08 14:11:24;;;;;;;;;;;;;;;;;;6189174;22;20359;-93
2022/11/08 14:13:50;;;;;;;;;;;;;;;;;;6212779;22;19926;-93
2022/11/08 14:16:15;;;;;;;;;;;;;;;;;;6211239;22;19949;-93
2022/11/08 14:18:41;;;;;;;;;;;;;;;;;;6266006;22;20272;-93
2022/11/08 14:21:07;;;;;;;;;;;;;;;;;;6212722;22;19920;-93
2022/11/08 14:23:33;;;;;;;;;;;;;;;;;;6234490;22;20287;-93
2022/11/08 14:25:59;;;;;;;;;;;;;;;;;;6211940;22;19919;-93
2022/11/08 14:28:25;;;;;;;;;;;;;;;;;;6208833;22;20307;-94
2022/11/08 14:30:51;;;;;;;;;;;;;;;;;;6212316;22;19915;-93
2022/11/08 14:33:17;;;;;;;;;;;;;;;;;;6209193;22;19926;-93
2022/11/08 14:35:43;;;;;;;;;;;;;;;;;;6237005;22;19996;-93
2022/11/08 14:38:09;;;;;;;;;;;;;;;;;;6236221;22;19919;-93
2022/11/08 14:40:35;;;;;;;;;;;;;;;;;;6210799;22;19919;-92
2022/11/08 14:43:01;;;;;;;;;;;;;;;;;;6236435;22;20333;-93
2022/11/08 14:45:27;;;;;;;;;;;;;;;;;;6210193;22;19916;-93
2022/11/08 14:47:53;;;;;;;;;;;;;;;;;;6237395;22;20368;-94
2022/11/08 14:50:19;;;;;;;;;;;;;;;;;;6206071;22;19958;-94
2022/11/08 14:52:45;;;;;;;;;;;;;;;;;;6208377;22;19946;-94
2022/11/08 14:55:14;;;;;;;;;;;;;;;;;;6208654;22;19968;-95
2022/11/08 14:57:41;;;;;;;;;;;;;;;;;;6212715;22;19926;-94
2022/11/08 15:00:09;;;;;;;;;;;;;;;;;;6212951;22;19924;-94
2022/11/08 15:02:35;;;;;;;;;;;;;;;;;;6211978;22;19919;-94
2022/11/08 15:05:02;;;;;;;;;;;;;;;;;;6214899;22;19926;-95
2022/11/08 15:07:28;;;;;;;;;;;;;;;;;;6212314;22;19919;-95
2022/11/08 15:09:56;;;;;;;;;;;;;;;;;;6238851;22;19919;-95
2022/11/08 15:12:22;;;;;;;;;;;;;;;;;;6237069;22;20030;-94
2022/11/08 15:14:48;;;;;;;;;;;;;;;;;;6215473;22;19923;-94
2022/11/08 15:17:17;;;;;;;;;;;;;;;;;;6213094;22;19934;-94
2022/11/08 15:19:43;;;;;;;;;;;;;;;;;;6213548;22;19965;-94
2022/11/08 15:22:09;;;;;;;;;;;;;;;;;;6216879;22;20002;-93
2022/11/08 15:27:53;;;;;;;;;;;;;;;;;;6192262;23;19978;-92
2022/11/08 15:33:06;;;;;;;;;;;;;;;;;;6233068;22;20360;-94
2022/11/08 15:38:36;;;;;;;;;;;;;;;;;;6231937;22;20328;-94
2022/11/08 15:41:08;;;;;;;;;;;;;;;;;;6209632;22;19945;-95
2022/11/08 15:43:37;;;;;;;;;;;;;;;;;;6203876;22;19969;-93
2022/11/08 15:46:06;;;;;;;;;;;;;;;;;;6209271;22;20298;-93
2022/11/08 15:48:32;;;;;;;;;;;;;;;;;;6203877;22;20246;-94
2022/11/08 15:51:14;;;;;;;;;;;;;;;;;;6208028;22;19915;-94
2022/11/08 15:53:40;;;;;;;;;;;;;;;;;;6231791;22;19925;-93
2022/11/08 15:56:06;;;;;;;;;;;;;;;;;;6206149;22;19927;-94
2022/11/08 15:58:38;;;;;;;;;;;;;;;;;;6205600;22;19925;-94
2022/11/08 16:01:07;;;;;;;;;;;;;;;;;;6214729;22;20365;-93
2022/11/08 16:03:36;;;;;;;;;;;;;;;;;;6226789;22;19923;-94
2022/11/08 16:06:05;;;;;;;;;;;;;;;;;;6206205;22;19962;-94
2022/11/08 16:08:39;;;;;;;;;;;;;;;;;;6203653;22;19970;-94
2022/11/08 16:11:18;;;;;;;;;;;;;;;;;;6176040;22;19920;-93
2022/11/08 16:14:00;;;;;;;;;;;;;;;;;;6240889;22;20272;-93
2022/11/08 16:19:45;;;;;;;;;;;;;;;;;;6250953;22;19923;-94
2022/11/08 16:22:22;;;;;;;;;;;;;;;;;;6227830;22;20026;-95
2022/11/08 16:25:06;;;;;;;;;;;;;;;;;;6233787;22;19985;-93
2022/11/08 16:27:41;;;;;;;;;;;;;;;;;;6199783;22;20543;-94
2022/11/08 16:30:27;;;;;;;;;;;;;;;;;;6232054;22;19922;-93
2022/11/08 16:33:00;;;;;;;;;;;;;;;;;;6203860;22;20294;-95
2022/11/08 16:35:31;;;;;;;;;;;;;;;;;;6197716;22;19967;-94
2022/11/08 16:38:00;;;;;;;;;;;;;;;;;;6200840;22;19923;-93
2022/11/08 16:40:29;;;;;;;;;;;;;;;;;;6199720;22;20006;-92
2022/11/08 16:42:57;;;;;;;;;;;;;;;;;;6202295;22;19923;-94
2022/11/08 16:45:35;;;;;;;;;;;;;;;;;;6203388;22;20331;-94
2022/11/08 16:48:01;;;;;;;;;;;;;;;;;;6205020;22;20189;-93
2022/11/08 16:50:30;;;;;;;;;;;;;;;;;;6204109;22;19926;-94
2022/11/08 16:52:56;;;;;;;;;;;;;;;;;;6200343;22;19926;-94
2022/11/08 16:55:34;;;;;;;;;;;;;;;;;;6179644;22;19919;-93
2022/11/08 16:58:05;;;;;;;;;;;;;;;;;;6206803;22;19958;-94
2022/11/08 17:00:35;;;;;;;;;;;;;;;;;;6231360;22;19954;-93
2022/11/08 17:03:10;;;;;;;;;;;;;;;;;;6206523;22;19934;-94
2022/11/08 17:06:00;;;;;;;;;;;;;;;;;;6207946;22;19920;-94
2022/11/08 17:08:44;;;;;;;;;;;;;;;;;;6269490;22;19926;-93
2022/11/08 17:11:14;;;;;;;;;;;;;;;;;;6207427;22;19915;-94
2022/11/08 17:13:54;;;;;;;;;;;;;;;;;;6200716;22;20225;-95